LGKV/KVA METAR and TAF weather

Enter ICAO airport designator
Station Type Date Time Source
LGKV METAR 2023/06/01 07:50 UTC NOAA

LGKV 010750Z 15005KT CAVOK 25/17 Q1016


Station Type Date Time Source
LGKV Decoded METAR 2023/06/01 07:50 UTC NOAA

Chrysoupoli Airport , Greece (LGKV) 40-59N 024-36E 5M
Jun 01, 2023 - 03:50 AM EDT / 2023.06.01 0750 UTC
Wind: from the SSE (150 degrees) at 6 MPH (5 KT):0
Visibility: greater than 7 mile(s):0
Temperature: 77 F (25 C)
Dew Point: 62 F (17 C)
Relative Humidity: 61%
Pressure (altimeter): 30.00 in. Hg (1016 hPa)
ob: LGKV 010750Z 15005KT CAVOK 25/17 Q1016
cycle: 8

Station Type Date Time Source
LGKV TAF 2023/06/01 06:15 UTC NOAA

TAF LGKV 010500Z 0106/0206 VRB03KT 9999 FEW030

Example: see airport list